createdAt,value
2019-06-20T00:02:28.993Z,68.30
2019-06-20T00:05:02.464Z,68.20
2019-06-20T00:07:35.883Z,68.10
2019-06-20T00:10:09.382Z,68.20
2019-06-20T00:12:42.804Z,68.20
2019-06-20T00:15:16.304Z,68.20
2019-06-20T00:17:49.722Z,68.00
2019-06-20T00:20:23.152Z,67.70
2019-06-20T00:22:56.583Z,63.40
2019-06-20T00:25:31.052Z,61.30
2019-06-20T00:28:05.581Z,60.80
2019-06-20T00:30:39.180Z,62.30
2019-06-20T00:33:12.607Z,64.00
2019-06-20T00:35:46.036Z,64.90
2019-06-20T00:38:19.448Z,65.80
2019-06-20T00:40:52.928Z,67.00
2019-06-20T00:43:26.347Z,67.70
2019-06-20T00:45:59.783Z,68.50
2019-06-20T00:48:33.203Z,69.20
2019-06-20T00:51:06.647Z,69.90
2019-06-20T00:53:40.107Z,71.30
2019-06-20T00:56:13.756Z,72.40
2019-06-20T00:58:47.549Z,72.00
2019-06-20T01:01:20.989Z,72.60
2019-06-20T01:03:54.400Z,73.20
2019-06-20T01:06:27.837Z,73.10
2019-06-20T01:09:01.250Z,72.70
2019-06-20T01:11:34.686Z,72.80
2019-06-20T01:14:08.108Z,72.90
2019-06-20T01:16:41.548Z,72.80
2019-06-20T01:19:14.963Z,72.90
2019-06-20T01:21:48.418Z,73.10
2019-06-20T01:24:21.903Z,73.30
2019-06-20T01:26:55.331Z,73.50
2019-06-20T01:29:28.743Z,73.70
2019-06-20T01:32:02.180Z,73.50
2019-06-20T01:34:35.832Z,74.00
2019-06-20T01:37:09.251Z,73.90
2019-06-20T01:39:42.671Z,73.80
2019-06-20T01:42:16.194Z,73.70
2019-06-20T01:44:49.608Z,73.70
2019-06-20T01:47:23.037Z,74.40
2019-06-20T01:49:56.470Z,73.80
2019-06-20T01:52:30.202Z,73.90
2019-06-20T01:55:05.283Z,73.90
2019-06-20T01:57:38.699Z,73.90
2019-06-20T02:00:14.072Z,73.90
2019-06-20T02:02:47.551Z,74.10
2019-06-20T02:05:21.139Z,74.10
2019-06-20T02:07:54.545Z,74.70
2019-06-20T02:10:27.976Z,75.40
2019-06-20T02:13:01.391Z,76.20
2019-06-20T02:15:34.892Z,76.80
2019-06-20T02:18:08.393Z,77.50
2019-06-20T02:20:47.862Z,78.00
2019-06-20T02:23:22.519Z,78.20
2019-06-20T02:25:56.026Z,78.40
2019-06-20T02:28:29.435Z,78.30
2019-06-20T02:31:02.874Z,78.30
2019-06-20T02:33:36.351Z,78.80
2019-06-20T02:36:09.790Z,79.10
2019-06-20T02:38:43.213Z,79.30
2019-06-20T02:41:16.643Z,79.50
2019-06-20T02:43:50.116Z,80.10
2019-06-20T02:46:23.540Z,79.50
2019-06-20T02:48:56.948Z,79.40
2019-06-20T02:51:30.531Z,79.20
2019-06-20T02:54:04.213Z,79.30
2019-06-20T02:56:37.648Z,79.20
2019-06-20T02:59:11.059Z,78.90
2019-06-20T03:01:44.561Z,78.70
2019-06-20T03:04:17.995Z,78.20
2019-06-20T03:06:51.421Z,78.00
2019-06-20T03:09:24.835Z,77.90
2019-06-20T03:11:58.272Z,77.90
2019-06-20T03:14:44.572Z,78.20
2019-06-20T03:17:06.856Z,78.40
2019-06-20T03:19:40.340Z,78.40
2019-06-20T03:22:13.797Z,78.20
2019-06-20T03:24:47.204Z,78.80
2019-06-20T03:27:20.691Z,78.10
2019-06-20T03:29:54.097Z,78.30
2019-06-20T03:32:27.540Z,78.70
2019-06-20T03:35:01.027Z,78.80
2019-06-20T03:37:35.420Z,78.80
2019-06-20T03:40:09.016Z,78.80
2019-06-20T03:42:42.467Z,79.10
2019-06-20T03:45:16.101Z,79.20
2019-06-20T03:47:49.521Z,79.00
2019-06-20T03:50:22.943Z,79.00
2019-06-20T03:53:02.373Z,78.70
2019-06-20T03:55:35.869Z,78.40
2019-06-20T03:58:09.430Z,78.20
2019-06-20T04:00:42.898Z,77.90
2019-06-20T04:03:16.382Z,77.70
2019-06-20T04:05:49.812Z,77.50
2019-06-20T04:08:23.240Z,77.30
2019-06-20T04:10:56.643Z,77.10
2019-06-20T04:13:30.073Z,77.10
2019-06-20T04:16:03.523Z,77.20
2019-06-20T04:18:37.352Z,77.10
2019-06-20T04:21:10.771Z,77.10
2019-06-20T04:23:44.204Z,77.00
2019-06-20T04:26:17.631Z,77.00
2019-06-20T04:28:51.131Z,77.00
2019-06-20T04:31:24.592Z,77.00
2019-06-20T04:33:58.070Z,76.90
2019-06-20T04:36:31.571Z,76.80
2019-06-20T04:39:18.749Z,76.80
2019-06-20T04:41:42.196Z,76.80
2019-06-20T04:44:15.622Z,76.80
2019-06-20T04:46:56.741Z,77.10
2019-06-20T04:49:30.151Z,76.80
2019-06-20T04:52:03.583Z,76.50
2019-06-20T04:54:37.003Z,76.40
2019-06-20T04:57:10.457Z,76.40
2019-06-20T04:59:43.919Z,76.30
2019-06-20T05:02:18.993Z,76.20
2019-06-20T05:04:52.412Z,75.90
2019-06-20T05:07:25.841Z,75.60
2019-06-20T05:09:59.261Z,75.10
2019-06-20T05:12:33.459Z,74.80
2019-06-20T05:15:07.629Z,74.80
2019-06-20T05:17:41.059Z,74.70
2019-06-20T05:20:15.107Z,74.60
2019-06-20T05:22:48.517Z,74.40
2019-06-20T05:25:21.965Z,74.20
2019-06-20T05:27:55.432Z,73.90
2019-06-20T05:30:29.036Z,73.50
2019-06-20T05:33:02.536Z,73.10
2019-06-20T05:35:35.969Z,73.20
2019-06-20T05:38:09.399Z,73.40
2019-06-20T05:40:42.820Z,73.20
2019-06-20T05:43:16.272Z,73.40
2019-06-20T05:45:49.702Z,73.20
2019-06-20T05:48:23.216Z,73.40
2019-06-20T05:50:56.633Z,73.20
2019-06-20T05:53:30.144Z,73.30
2019-06-20T05:56:03.633Z,73.40
2019-06-20T05:58:37.077Z,73.50
2019-06-20T06:01:11.707Z,73.50
2019-06-20T06:03:45.533Z,73.50
2019-06-20T06:06:18.956Z,73.60
2019-06-20T06:08:52.387Z,73.70
2019-06-20T06:11:25.812Z,73.70
2019-06-20T06:13:59.260Z,73.70
2019-06-20T06:16:32.664Z,73.70
2019-06-20T06:19:06.104Z,73.70
2019-06-20T06:21:39.523Z,73.80
2019-06-20T06:24:13.031Z,74.00
2019-06-20T06:26:46.444Z,74.00
2019-06-20T06:29:19.868Z,74.00
2019-06-20T06:31:53.299Z,73.70
2019-06-20T06:34:26.729Z,73.70
2019-06-20T06:37:00.147Z,73.50
2019-06-20T06:39:33.664Z,73.50
2019-06-20T06:42:07.085Z,73.60
2019-06-20T06:44:40.526Z,73.40
2019-06-20T06:47:13.939Z,73.00
2019-06-20T06:49:47.373Z,72.60
2019-06-20T06:52:20.790Z,72.40
2019-06-20T06:54:54.221Z,72.20
2019-06-20T06:57:27.642Z,72.10
2019-06-20T07:00:01.121Z,72.50
2019-06-20T07:02:34.535Z,72.50
2019-06-20T07:05:08.489Z,72.70
2019-06-20T07:07:41.899Z,72.80
2019-06-20T07:10:16.274Z,73.10
2019-06-20T07:12:49.695Z,73.00
2019-06-20T07:15:23.270Z,73.20
2019-06-20T07:17:56.683Z,73.10
2019-06-20T07:20:30.175Z,73.00
2019-06-20T07:23:03.599Z,72.90
2019-06-20T07:25:37.025Z,73.00
2019-06-20T07:28:10.442Z,72.90
2019-06-20T07:30:44.311Z,73.00
2019-06-20T07:33:17.818Z,72.90
2019-06-20T07:35:51.292Z,72.90
2019-06-20T07:38:24.716Z,73.00
2019-06-20T07:40:58.205Z,72.90
2019-06-20T07:43:31.640Z,72.70
2019-06-20T07:46:05.196Z,72.80
2019-06-20T07:48:38.627Z,72.70
2019-06-20T07:51:12.044Z,72.70
2019-06-20T07:53:45.475Z,72.70
2019-06-20T07:56:18.911Z,72.70
2019-06-20T07:58:52.385Z,72.30
2019-06-20T08:01:25.808Z,72.40
2019-06-20T08:03:59.241Z,72.00
2019-06-20T08:06:32.659Z,71.80
2019-06-20T08:09:08.305Z,71.90
2019-06-20T08:11:41.761Z,71.60
2019-06-20T08:14:15.189Z,71.50
2019-06-20T08:16:48.680Z,70.90
2019-06-20T08:19:22.110Z,70.60
2019-06-20T08:21:55.531Z,70.90
2019-06-20T08:24:28.972Z,70.50
2019-06-20T08:27:03.242Z,70.40
2019-06-20T08:29:37.555Z,70.30
2019-06-20T08:32:10.987Z,70.40
2019-06-20T08:34:44.416Z,70.20
2019-06-20T08:37:17.875Z,70.00
2019-06-20T08:39:51.334Z,70.20
2019-06-20T08:42:24.743Z,70.50
2019-06-20T08:44:59.428Z,70.40
2019-06-20T08:47:33.176Z,70.20
2019-06-20T08:50:08.552Z,69.60
2019-06-20T08:52:41.952Z,69.20
2019-06-20T08:55:16.144Z,68.00
2019-06-20T08:57:49.567Z,67.80
2019-06-20T09:00:25.215Z,67.90
2019-06-20T09:02:58.801Z,67.80
2019-06-20T09:05:33.905Z,67.10
2019-06-20T09:08:11.198Z,66.60
2019-06-20T09:10:43.552Z,66.80
2019-06-20T09:13:16.992Z,66.60
2019-06-20T09:15:50.420Z,66.00
2019-06-20T09:18:23.833Z,65.90
2019-06-20T09:20:58.085Z,65.40
2019-06-20T09:23:31.559Z,65.90
2019-06-20T09:26:05.553Z,65.10
2019-06-20T09:28:38.973Z,64.30
2019-06-20T09:31:12.412Z,64.40
2019-06-20T09:33:45.833Z,64.50
2019-06-20T09:36:19.267Z,64.80
2019-06-20T09:38:53.981Z,63.60
2019-06-20T09:41:27.841Z,62.40
2019-06-20T09:44:01.255Z,61.60
2019-06-20T09:46:34.709Z,61.30
2019-06-20T09:49:08.187Z,61.30
2019-06-20T09:51:41.683Z,61.30
2019-06-20T09:54:15.095Z,61.40
2019-06-20T09:56:50.345Z,61.20
2019-06-20T09:59:27.930Z,60.90
2019-06-20T10:01:58.963Z,60.80
2019-06-20T10:04:32.460Z,60.50
2019-06-20T10:07:05.900Z,60.30
2019-06-20T10:09:39.314Z,60.50
2019-06-20T10:12:12.752Z,60.10
2019-06-20T10:14:46.915Z,59.90
2019-06-20T10:17:21.332Z,60.00
2019-06-20T10:19:54.759Z,60.00
2019-06-20T10:22:28.264Z,60.10
2019-06-20T10:25:01.701Z,60.00
2019-06-20T10:27:35.959Z,59.70
2019-06-20T10:30:14.247Z,59.60
2019-06-20T10:32:45.613Z,59.20
2019-06-20T10:35:20.860Z,59.00
2019-06-20T10:37:54.282Z,59.10
2019-06-20T10:40:27.781Z,59.10
2019-06-20T10:43:01.205Z,58.70
2019-06-20T10:45:37.103Z,58.50
2019-06-20T10:48:10.551Z,58.50
2019-06-20T10:50:45.685Z,57.90
2019-06-20T10:53:19.326Z,57.80
2019-06-20T10:55:52.760Z,58.00
2019-06-20T10:58:26.180Z,58.10
2019-06-20T11:00:59.611Z,58.30
2019-06-20T11:03:33.037Z,58.40
2019-06-20T11:06:06.470Z,58.20
2019-06-20T11:08:40.645Z,57.80
2019-06-20T11:11:15.099Z,56.90
2019-06-20T11:13:48.609Z,55.80
2019-06-20T11:16:22.023Z,55.40
2019-06-20T11:18:55.432Z,55.10
2019-06-20T11:21:28.858Z,55.50
2019-06-20T11:24:02.272Z,55.70
2019-06-20T11:26:37.727Z,56.00
2019-06-20T11:29:10.876Z,56.10
2019-06-20T11:31:46.331Z,56.40
2019-06-20T11:34:19.443Z,56.70
2019-06-20T11:36:52.918Z,56.70
2019-06-20T11:39:26.388Z,56.90
2019-06-20T11:41:59.822Z,57.10
2019-06-20T11:44:35.380Z,57.30
2019-06-20T11:47:08.387Z,57.50
2019-06-20T11:49:42.504Z,57.30
2019-06-20T11:52:16.492Z,56.90
2019-06-20T11:54:49.915Z,56.70
2019-06-20T11:57:23.421Z,56.50
2019-06-20T11:59:56.851Z,56.40
2019-06-20T12:02:30.292Z,56.40
2019-06-20T12:05:08.680Z,56.60
2019-06-20T12:07:43.556Z,55.30
2019-06-20T12:10:17.905Z,55.20
2019-06-20T12:12:51.353Z,55.30
2019-06-20T12:15:24.916Z,55.40
2019-06-20T12:17:58.343Z,55.50
2019-06-20T12:20:31.763Z,55.60
2019-06-20T12:23:05.208Z,55.50
2019-06-20T12:25:40.580Z,55.60
2019-06-20T12:28:13.788Z,55.80
2019-06-20T12:30:48.387Z,55.90
2019-06-20T12:33:22.024Z,55.90
2019-06-20T12:35:55.456Z,56.00
2019-06-20T12:38:28.948Z,55.70
2019-06-20T12:41:02.372Z,55.50
2019-06-20T12:43:35.802Z,55.50
2019-06-20T12:46:09.388Z,55.80
2019-06-20T12:48:42.879Z,56.00
2019-06-20T12:51:16.300Z,56.20
2019-06-20T12:53:50.925Z,55.60
2019-06-20T12:56:24.446Z,60.60
2019-06-20T12:58:57.965Z,68.30
2019-06-20T13:01:36.856Z,70.50
2019-06-20T13:04:06.537Z,64.10
2019-06-20T13:06:40.491Z,76.20
2019-06-20T13:09:14.301Z,84.30
2019-06-20T13:11:49.043Z,88.10
2019-06-20T13:14:23.002Z,91.00
2019-06-20T13:16:56.428Z,91.30
2019-06-20T13:19:29.899Z,92.10
2019-06-20T13:22:03.336Z,92.80
2019-06-20T13:24:37.949Z,93.50
2019-06-20T13:27:11.908Z,94.00
2019-06-20T13:29:45.357Z,94.10
2019-06-20T13:32:18.864Z,94.40
2019-06-20T13:34:52.355Z,94.40
2019-06-20T13:37:25.798Z,94.70
2019-06-20T13:39:59.208Z,95.20
2019-06-20T13:42:32.648Z,95.50
2019-06-20T13:45:13.283Z,95.20
2019-06-20T13:47:45.603Z,95.80
2019-06-20T13:50:20.474Z,96.00
2019-06-20T13:52:54.039Z,96.10
2019-06-20T13:55:27.493Z,96.70
2019-06-20T13:58:00.973Z,97.10
2019-06-20T14:00:34.452Z,96.90
2019-06-20T14:03:07.894Z,97.20
2019-06-20T14:05:42.753Z,97.30
2019-06-20T14:08:16.320Z,97.00
2019-06-20T14:10:49.872Z,96.90
2019-06-20T14:13:23.419Z,97.30
2019-06-20T14:15:56.851Z,97.60
2019-06-20T14:18:30.292Z,97.60
2019-06-20T14:21:03.736Z,97.60
2019-06-20T14:23:37.205Z,97.80
2019-06-20T14:26:10.685Z,97.80
2019-06-20T14:28:44.355Z,97.70
2019-06-20T14:31:17.880Z,97.70
2019-06-20T14:33:51.371Z,97.90
2019-06-20T14:36:24.797Z,98.10
2019-06-20T14:38:58.244Z,98.20
2019-06-20T14:41:31.684Z,98.10
2019-06-20T14:44:05.172Z,97.90
2019-06-20T14:46:38.601Z,98.10
2019-06-20T14:49:12.033Z,98.30
2019-06-20T14:51:46.745Z,98.60
2019-06-20T14:54:20.598Z,98.70
2019-06-20T14:56:54.016Z,98.90
2019-06-20T14:59:27.447Z,98.50
2019-06-20T15:02:00.869Z,98.70
2019-06-20T15:04:34.311Z,99.00
2019-06-20T15:07:07.717Z,99.10
2019-06-20T15:09:41.143Z,99.20
2019-06-20T15:12:14.555Z,99.50
2019-06-20T15:14:49.693Z,99.60
2019-06-20T15:17:23.184Z,99.80
2019-06-20T15:19:56.615Z,99.50
2019-06-20T15:22:30.039Z,99.60
2019-06-20T15:25:05.288Z,99.60
2019-06-20T15:27:38.721Z,99.80
2019-06-20T15:30:12.526Z,99.80
2019-06-20T15:33:00.805Z,99.50
2019-06-20T15:35:21.156Z,99.50
2019-06-20T15:37:55.615Z,99.30
2019-06-20T15:40:29.380Z,99.70
2019-06-20T15:43:02.813Z,99.30
2019-06-20T15:45:36.242Z,98.80
2019-06-20T15:48:09.659Z,98.50
2019-06-20T15:50:43.105Z,98.30
2019-06-20T15:53:16.531Z,98.10
2019-06-20T15:55:50.606Z,98.00
2019-06-20T15:58:24.029Z,97.50
2019-06-20T16:00:57.500Z,97.40
2019-06-20T16:03:30.984Z,97.10
2019-06-20T16:06:05.149Z,97.10
2019-06-20T16:08:38.581Z,97.40
2019-06-20T16:11:12.069Z,97.20
2019-06-20T16:13:45.604Z,96.80
2019-06-20T16:16:19.099Z,96.20
2019-06-20T16:18:52.557Z,94.60
2019-06-20T16:21:26.043Z,92.80
2019-06-20T16:23:59.538Z,91.50
2019-06-20T16:26:32.965Z,90.30
2019-06-20T16:29:06.489Z,90.90
2019-06-20T16:31:39.981Z,90.20
2019-06-20T16:34:13.404Z,90.70
2019-06-20T16:36:46.816Z,90.70
2019-06-20T16:39:20.257Z,91.30
2019-06-20T16:41:53.676Z,91.50
2019-06-20T16:44:27.107Z,91.10
2019-06-20T16:47:00.531Z,91.70
2019-06-20T16:49:33.969Z,91.90
2019-06-20T16:52:07.417Z,92.20
2019-06-20T16:54:40.851Z,92.40
2019-06-20T16:57:14.263Z,92.50
2019-06-20T16:59:47.709Z,92.40
2019-06-20T17:02:21.140Z,91.60
2019-06-20T17:04:56.659Z,91.20
2019-06-20T17:07:29.784Z,91.10
2019-06-20T17:10:04.763Z,91.10
2019-06-20T17:12:38.279Z,91.20
2019-06-20T17:15:11.842Z,91.30
2019-06-20T17:17:45.273Z,91.10
2019-06-20T17:20:19.920Z,90.50
2019-06-20T17:22:53.377Z,90.50
2019-06-20T17:25:26.807Z,90.30
2019-06-20T17:28:00.227Z,90.40
2019-06-20T17:30:34.114Z,89.90
2019-06-20T17:33:07.591Z,89.30
2019-06-20T17:35:41.091Z,87.40
2019-06-20T17:38:14.512Z,86.30
2019-06-20T17:40:48.028Z,85.40
2019-06-20T17:43:21.448Z,86.60
2019-06-20T17:45:54.881Z,88.20
2019-06-20T17:48:28.304Z,87.50
2019-06-20T17:51:01.736Z,87.30
2019-06-20T17:53:35.173Z,87.80
2019-06-20T17:56:08.736Z,87.40
2019-06-20T17:58:42.153Z,87.40
2019-06-20T18:01:15.585Z,87.70
2019-06-20T18:03:48.999Z,88.00
2019-06-20T18:06:22.435Z,88.00
2019-06-20T18:08:55.863Z,87.50
2019-06-20T18:11:29.427Z,87.70
2019-06-20T18:14:02.880Z,87.50
2019-06-20T18:16:36.306Z,87.80
2019-06-20T18:19:09.729Z,88.10
2019-06-20T18:21:43.168Z,87.90
2019-06-20T18:24:16.592Z,88.20
2019-06-20T18:26:50.019Z,88.50
2019-06-20T18:29:23.511Z,89.00
2019-06-20T18:31:56.943Z,89.40
2019-06-20T18:34:30.669Z,89.70
2019-06-20T18:37:04.493Z,90.10
2019-06-20T18:39:37.967Z,90.20
2019-06-20T18:42:11.458Z,90.20
2019-06-20T18:44:45.672Z,90.20
2019-06-20T18:47:21.786Z,90.40
2019-06-20T18:49:54.250Z,90.40
2019-06-20T18:52:27.733Z,90.60
2019-06-20T18:55:01.155Z,90.70
2019-06-20T18:57:34.616Z,90.80
2019-06-20T19:00:10.795Z,91.00
2019-06-20T19:02:44.219Z,91.20
2019-06-20T19:05:17.653Z,91.30
2019-06-20T19:07:51.121Z,91.40
2019-06-20T19:10:24.825Z,91.40
2019-06-20T19:12:58.312Z,91.50
2019-06-20T19:15:31.712Z,91.40
2019-06-20T19:18:05.220Z,91.40
2019-06-20T19:20:38.639Z,91.70
2019-06-20T19:23:12.097Z,92.00
2019-06-20T19:25:45.596Z,92.10
2019-06-20T19:28:19.081Z,92.20
2019-06-20T19:30:52.746Z,91.60
2019-06-20T19:33:26.183Z,92.00
2019-06-20T19:35:59.656Z,92.40
2019-06-20T19:38:33.093Z,92.60
2019-06-20T19:41:06.506Z,92.70
2019-06-20T19:43:39.944Z,92.70
2019-06-20T19:46:13.367Z,93.40
2019-06-20T19:48:46.796Z,93.00
2019-06-20T19:51:20.246Z,92.70
2019-06-20T19:53:53.731Z,92.60
2019-06-20T19:56:27.169Z,92.90
2019-06-20T19:59:00.577Z,92.70
2019-06-20T20:01:33.997Z,92.80
2019-06-20T20:04:07.556Z,92.70
2019-06-20T20:06:41.032Z,92.60
2019-06-20T20:09:14.591Z,92.70
2019-06-20T20:11:48.011Z,92.70
2019-06-20T20:14:21.440Z,92.40
2019-06-20T20:16:54.854Z,92.40
2019-06-20T20:19:28.287Z,92.40
2019-06-20T20:22:01.707Z,92.40
2019-06-20T20:24:35.147Z,92.70
2019-06-20T20:27:08.564Z,93.10
2019-06-20T20:29:42.002Z,93.30
2019-06-20T20:32:15.442Z,93.40
2019-06-20T20:34:48.932Z,93.10
2019-06-20T20:37:22.340Z,93.10
2019-06-20T20:39:55.772Z,91.80
2019-06-20T20:42:29.195Z,90.80
2019-06-20T20:45:02.738Z,91.40
2019-06-20T20:47:36.152Z,92.60
2019-06-20T20:50:10.726Z,93.40
2019-06-20T20:52:44.136Z,93.70
2019-06-20T20:55:17.713Z,93.70
2019-06-20T20:57:51.139Z,94.20
2019-06-20T21:00:27.345Z,94.20
2019-06-20T21:03:00.759Z,94.10
2019-06-20T21:05:34.183Z,94.40
2019-06-20T21:08:07.596Z,94.40
2019-06-20T21:10:41.038Z,94.40
2019-06-20T21:13:14.460Z,94.50
2019-06-20T21:15:47.896Z,94.40
2019-06-20T21:18:21.326Z,94.20
2019-06-20T21:20:54.763Z,94.30
2019-06-20T21:23:28.254Z,94.50
2019-06-20T21:26:01.723Z,94.40
2019-06-20T21:28:35.136Z,94.50
2019-06-20T21:31:08.568Z,94.50
2019-06-20T21:33:42.009Z,94.40
2019-06-20T21:36:15.505Z,94.50
2019-06-20T21:38:48.919Z,94.60
2019-06-20T21:41:22.439Z,95.10
2019-06-20T21:43:55.856Z,94.90
2019-06-20T21:46:29.309Z,94.90
2019-06-20T21:49:02.844Z,95.10
2019-06-20T21:51:36.300Z,95.00
2019-06-20T21:54:09.717Z,94.90
2019-06-20T21:56:43.142Z,94.80
2019-06-20T21:59:16.559Z,95.00
2019-06-20T22:01:50.015Z,95.00
2019-06-20T22:04:23.532Z,95.00
2019-06-20T22:06:56.955Z,94.90
2019-06-20T22:09:30.368Z,95.10
2019-06-20T22:12:03.875Z,94.90
2019-06-20T22:14:37.293Z,94.80
2019-06-20T22:17:10.787Z,94.80
2019-06-20T22:19:44.264Z,94.90
2019-06-20T22:22:17.684Z,94.80
2019-06-20T22:24:51.129Z,94.90
2019-06-20T22:27:24.552Z,95.00
2019-06-20T22:29:57.985Z,95.30
2019-06-20T22:32:31.401Z,94.90
2019-06-20T22:35:06.772Z,94.80
2019-06-20T22:37:40.188Z,94.70
2019-06-20T22:40:14.367Z,94.60
2019-06-20T22:42:47.774Z,94.60
2019-06-20T22:45:21.212Z,94.60
2019-06-20T22:47:54.636Z,94.70
2019-06-20T22:50:28.069Z,94.70
2019-06-20T22:53:01.488Z,94.80
2019-06-20T22:55:35.456Z,94.80
2019-06-20T22:58:08.894Z,94.80
2019-06-20T23:00:42.871Z,94.70
2019-06-20T23:03:16.356Z,94.70
2019-06-20T23:05:49.800Z,94.60
2019-06-20T23:08:23.207Z,94.50
2019-06-20T23:10:56.721Z,94.50
2019-06-20T23:13:30.134Z,94.50
2019-06-20T23:16:03.644Z,94.60
2019-06-20T23:18:37.067Z,94.60
2019-06-20T23:21:10.623Z,94.50
2019-06-20T23:23:44.040Z,94.50
2019-06-20T23:26:17.479Z,94.60
2019-06-20T23:28:52.537Z,94.50
2019-06-20T23:31:25.963Z,94.80
2019-06-20T23:33:59.383Z,94.90
2019-06-20T23:36:32.805Z,94.80
2019-06-20T23:39:06.888Z,94.60
2019-06-20T23:41:40.320Z,94.60
2019-06-20T23:44:13.736Z,94.80
2019-06-20T23:46:47.155Z,94.80
2019-06-20T23:49:20.573Z,94.90
2019-06-20T23:52:01.676Z,94.90
2019-06-20T23:54:35.097Z,94.90
2019-06-20T23:57:08.545Z,94.90
2019-06-20T23:59:41.971Z,94.80
